Mountain Home, ID

19:03:MDT den 28. mars 2015 (GMT -0600)
NonFedAWOS MOUNTAIN HOME ID US SUPERAWOS | | Change Station
CLOSE
Current Station
Personlig værstasjon
Location: Mountain Home, ID
Høyde over havet: 3160 ft
Nearby Weather Stations

H.o.h 3160 ft 43.13 °N, 115.73 °W | Updated 48 minutes ago

Delvis skyet
Delvis skyet
57 °F
Feels Like 57 °F
N
20
Vind Variabel Vind from NV
Gusts 27.0 mph

I dag
High -- | Low -- °F
--% Chance of Precip.
I går
High -- | Low -- °F
Precip. -- tommer
7:32 AM 8:04 PM
Trekvart økende, 67% visible
Lufttrykk 30.22 tommer
Sikt 10.0 eng. mil
Skyet Klart
Duggpunkt 27 °F
Fuktighet 31%
Regn tommer
Snødybde Not available.
UV 2 av 12
Pollen 6.40 av 12
Luftkvalitet Not available.
Flu Activity Not available.
METAR KMUO 282358Z AUTO 33017G23KT 10SM CLR 16/M04 A3023 RMK AO2 SLP232 T01561038 10164 20131 55012 $

More Conditions Fewer Conditions

Lufttrykk 30.22 tommer
Sikt 10.0 eng. mil
Skyet Klart
Duggpunkt 27 °F
Fuktighet 31%
Regn tommer
Snødybde Not available.
UV 2 av 12
Pollen 6.40 av 12
Luftkvalitet Not available.
Flu Activity Not available.
METAR KMUO 282358Z AUTO 33017G23KT 10SM CLR 16/M04 A3023 RMK AO2 SLP232 T01561038 10164 20131 55012 $

More Conditions Fewer Conditions

10-Day Weather Forecast

Almanac

Astronomi

Mar. 28, 2015 Oppgang Nedgang
Virkelig tid
Tussmørke
Nautisk skumring
Astronomisk skumring
Månen
Lengde av synlig lys
Dagens lengde
Tomorrow will be .
, % of the Moon is Illuminated

Dagens maks og min

State Highs State Lows

Community

WunderPhotos

Upload Photos

1,809,140 photos uploaded!

WunderBlogs® & News

Nearby

Luftkvalitet

  Luftkvalitet AQ Indeks Forurensing
Not available.

Snødybde

Stasjon Depth Høyde over havet

Earthquake Activity

By Distance Mag. Time & Date
Minimum magnitude displayed is 2.5.

Coastal Water Temperatures

Sted Temperatur

Stations

Nearby Weather Stations

Stasjonens lokasjon Temp. Nedkjølingseffekt Duggpunkt Fuktighet Vind Precip. H.o.h Oppdatert Type